Time;durP1;ratioP1;P1;durP2;ratioP2;P2;SDS_P1;SDS_P2;PMS_P1;PMS_P2;Temp;Humidity;BMP_temperature;BMP_pressure;BME280_temperature;BME280_humidity;BME280_pressure;Samples;Min_cycle;Max_cycle;Signal;HPM_P1;HPM_P2
2022/01/12 00:01:05;;;;;;;14.00;9.67;;;;;;;-1.93;100.00;99949.38;5108528;28;20218;-78
2022/01/12 00:03:33;;;;;;;14.17;9.30;;;;;;;-1.88;100.00;99952.91;5107093;28;20228;-78
2022/01/12 00:06:00;;;;;;;11.30;8.73;;;;;;;-1.91;100.00;99950.28;5103346;28;20236;-79
2022/01/12 00:08:26;;;;;;;14.90;9.63;;;;;;;-1.78;100.00;99954.72;5109334;28;20212;-79
2022/01/12 00:10:56;;;;;;;10.67;8.63;;;;;;;-1.75;100.00;99949.53;5098957;28;20355;-79
2022/01/12 00:13:23;;;;;;;9.57;7.70;;;;;;;-1.80;100.00;99946.03;5100983;28;20687;-80
2022/01/12 00:15:51;;;;;;;10.90;7.83;;;;;;;-1.84;100.00;99946.88;5102487;28;20534;-81
2022/01/12 00:18:17;;;;;;;12.37;8.00;;;;;;;-1.92;100.00;99951.13;5098873;28;20220;-79
2022/01/12 00:20:44;;;;;;;9.97;7.50;;;;;;;-2.02;100.00;99951.91;5098089;28;20683;-81
2022/01/12 00:23:10;;;;;;;11.60;8.53;;;;;;;-2.01;100.00;99956.22;5101160;28;20224;-81
2022/01/12 00:25:56;;;;;;;11.57;8.00;;;;;;;-2.05;100.00;99955.34;5102409;28;20241;-78
2022/01/12 00:33:53;;;;;;;11.17;7.87;;;;;;;-2.30;100.00;99952.47;5100072;28;20723;-80
2022/01/12 00:36:20;;;;;;;11.53;8.27;;;;;;;-2.28;100.00;99956.81;5099736;28;20218;-80
2022/01/12 00:38:47;;;;;;;11.40;8.20;;;;;;;-2.32;100.00;99951.59;5100717;28;20216;-80
2022/01/12 00:41:16;;;;;;;11.97;8.77;;;;;;;-2.41;100.00;99949.78;5103346;28;20566;-79
2022/01/12 00:43:47;;;;;;;11.63;8.37;;;;;;;-2.38;100.00;99954.13;5100176;28;20217;-80
2022/01/12 00:46:13;;;;;;;10.47;7.97;;;;;;;-2.33;100.00;99957.66;5099201;28;20614;-80
2022/01/12 00:48:40;;;;;;;12.43;8.73;;;;;;;-2.30;100.00;99965.44;5100744;28;20222;-80
2022/01/12 00:51:07;;;;;;;10.67;8.33;;;;;;;-2.20;100.00;99964.69;5103089;28;20221;-80
2022/01/12 00:53:34;;;;;;;11.40;8.47;;;;;;;-2.14;100.00;99959.56;5099875;28;20212;-80
2022/01/12 00:56:00;;;;;;;11.73;8.63;;;;;;;-2.05;100.00;99970.88;5097564;28;20209;-80
2022/01/12 00:58:27;;;;;;;13.03;8.57;;;;;;;-2.05;100.00;99970.88;5100574;28;20217;-80
2022/01/12 01:00:55;;;;;;;10.93;8.20;;;;;;;-2.00;100.00;99968.31;5103199;28;20215;-80
2022/01/12 01:03:21;;;;;;;13.40;8.80;;;;;;;-2.01;100.00;99967.47;5100016;28;20592;-80
2022/01/12 01:05:48;;;;;;;12.53;8.83;;;;;;;-2.11;100.00;99967.34;5099246;28;20241;-80
2022/01/12 01:08:14;;;;;;;13.13;8.27;;;;;;;-2.18;100.00;99969.03;5099920;28;20214;-80
2022/01/12 01:10:46;;;;;;;11.33;8.63;;;;;;;-2.14;100.00;99980.28;5100845;28;20209;-80
2022/01/12 01:13:15;;;;;;;11.63;8.17;;;;;;;-2.10;100.00;99982.03;5095410;28;20268;-80
2022/01/12 01:26:43;;;;;;;12.17;8.13;;;;;;;-2.29;100.00;99965.47;5104358;28;20330;-80
2022/01/12 01:29:10;;;;;;;12.63;7.30;;;;;;;-2.32;100.00;99969.72;5107407;28;20216;-80
2022/01/12 01:31:38;;;;;;;11.83;8.27;;;;;;;-2.43;100.00;99973.91;5106173;28;20238;-80
2022/01/12 01:34:11;;;;;;;12.33;8.73;;;;;;;-2.48;100.00;99980.75;5103720;28;20212;-80
2022/01/12 01:36:40;;;;;;;13.53;7.93;;;;;;;-2.58;100.00;99976.34;5105202;28;20245;-80
2022/01/12 01:39:07;;;;;;;12.80;8.60;;;;;;;-2.58;100.00;99978.94;5107365;28;20693;-80
2022/01/12 01:41:34;;;;;;;12.03;8.87;;;;;;;-2.58;100.00;99981.53;5104972;28;20212;-80
2022/01/12 01:44:32;;;;;;;12.50;8.60;;;;;;;-2.54;100.00;99978.09;5103696;28;20568;-80
2022/01/12 01:55:12;;;;;;;13.10;7.90;;;;;;;-2.65;100.00;99964.16;5102422;28;20268;-80
2022/01/12 01:57:39;;;;;;;11.03;8.27;;;;;;;-2.71;100.00;99966.66;5102199;28;20675;-80
2022/01/12 02:00:09;;;;;;;13.30;8.60;;;;;;;-2.73;100.00;99965.78;5103875;28;20216;-80
2022/01/12 02:02:36;;;;;;;12.10;8.33;;;;;;;-2.71;100.00;99964.09;5102155;28;20212;-80
2022/01/12 02:05:05;;;;;;;12.93;9.13;;;;;;;-2.69;100.00;99971.03;5100322;28;20609;-80
2022/01/12 02:07:33;;;;;;;12.17;8.73;;;;;;;-2.67;100.00;99990.03;5099071;28;20236;-80
2022/01/12 02:09:59;;;;;;;11.67;8.97;;;;;;;-2.67;100.00;99981.41;5102066;28;20558;-80
2022/01/12 02:12:27;;;;;;;14.43;9.70;;;;;;;-2.63;100.00;99983.19;5101933;28;20225;-80
2022/01/12 02:14:54;;;;;;;13.17;8.93;;;;;;;-2.57;100.00;99993.63;5100388;28;20261;-80
2022/01/12 02:17:25;;;;;;;14.63;9.60;;;;;;;-2.54;100.00;99988.47;5105090;28;20212;-80
2022/01/12 02:20:07;;;;;;;12.57;9.07;;;;;;;-2.53;100.00;99997.94;5104586;28;20220;-80
2022/01/12 02:36:24;;;;;;;13.30;9.80;;;;;;;-2.56;100.00;99985.00;5108066;28;20219;-80
2022/01/12 02:41:38;;;;;;;15.40;9.30;;;;;;;-2.70;100.00;99976.19;5102994;28;20220;-80
2022/01/12 02:55:06;;;;;;;12.20;8.50;;;;;;;-3.05;100.00;99977.47;5101979;28;20241;-80
2022/01/12 02:57:33;;;;;;;11.77;8.30;;;;;;;-3.07;100.00;99989.50;5097381;28;20217;-80
2022/01/12 03:00:07;;;;;;;12.03;8.87;;;;;;;-3.04;100.00;99984.38;5098130;28;20236;-80
2022/01/12 03:02:37;;;;;;;12.43;9.30;;;;;;;-2.96;100.00;99978.44;5098159;28;20295;-80
2022/01/12 03:05:27;;;;;;;10.97;7.97;;;;;;;-2.93;100.00;99980.22;5097189;28;20717;-80
2022/01/12 03:07:53;;;;;;;12.17;8.80;;;;;;;-2.96;100.00;99987.91;5097485;28;20213;-80
2022/01/12 03:10:21;;;;;;;12.77;8.87;;;;;;;-2.97;100.00;99997.41;5098876;28;20205;-80
2022/01/12 03:12:48;;;;;;;12.37;8.73;;;;;;;-2.99;100.00;99995.66;5101918;28;20208;-80
2022/01/12 03:15:14;;;;;;;12.47;8.80;;;;;;;-3.04;100.00;99999.88;5097091;28;20687;-80
2022/01/12 03:17:41;;;;;;;13.37;9.13;;;;;;;-3.02;100.00;99987.81;5097422;28;20705;-80
2022/01/12 03:20:09;;;;;;;11.73;8.80;;;;;;;-3.06;100.00;99978.31;5099251;28;20588;-80
2022/01/12 03:22:37;;;;;;;11.33;8.10;;;;;;;-3.10;100.00;99979.09;5097244;28;20271;-80
2022/01/12 03:25:04;;;;;;;12.57;8.60;;;;;;;-3.17;100.00;99978.13;5096619;28;20246;-80
2022/01/12 03:27:32;;;;;;;9.77;7.60;;;;;;;-3.17;100.00;99978.13;5097579;28;20208;-80
2022/01/12 03:29:59;;;;;;;10.57;7.70;;;;;;;-3.17;100.00;100003.16;5098877;28;20223;-80
2022/01/12 03:32:32;;;;;;;10.30;7.50;;;;;;;-3.21;100.00;100006.53;5095113;28;20221;-80
2022/01/12 03:35:08;;;;;;;9.87;7.87;;;;;;;-3.20;100.00;100008.25;5097014;28;20306;-80
2022/01/12 03:37:53;;;;;;;10.93;8.53;;;;;;;-3.18;100.00;100017.78;5097053;28;20213;-80
2022/01/12 03:40:19;;;;;;;11.33;7.97;;;;;;;-3.16;100.00;100015.22;5101381;28;20211;-80
2022/01/12 03:42:47;;;;;;;13.63;8.57;;;;;;;-3.15;100.00;100017.84;5104793;28;20676;-80
2022/01/12 03:45:15;;;;;;;12.40;9.00;;;;;;;-3.22;100.00;100009.97;5103126;28;20216;-80
2022/01/12 03:47:41;;;;;;;12.53;8.57;;;;;;;-3.24;100.00;100009.06;5101075;28;20223;-80
2022/01/12 03:50:08;;;;;;;14.00;8.67;;;;;;;-3.29;100.00;100001.25;5101396;28;20213;-80
2022/01/12 03:52:35;;;;;;;10.33;7.50;;;;;;;-3.28;100.00;100009.88;5104921;28;20235;-80
2022/01/12 03:55:01;;;;;;;9.37;7.17;;;;;;;-3.27;100.00;100009.00;5104454;28;20593;-80
2022/01/12 03:57:28;;;;;;;11.87;8.47;;;;;;;-3.36;100.00;100022.66;5100436;28;20219;-80
2022/01/12 03:59:56;;;;;;;13.10;9.50;;;;;;;-3.36;100.00;100027.00;5100242;28;20214;-80
2022/01/12 04:02:23;;;;;;;10.63;7.70;;;;;;;-3.35;100.00;100033.88;5104395;28;20224;-80
2022/01/12 04:05:08;;;;;;;10.73;7.93;;;;;;;-3.33;100.00;100032.19;5104478;28;20227;-80
2022/01/12 04:10:19;;;;;;;10.17;7.90;;;;;;;-3.33;100.00;100029.59;5099413;28;20215;-80
2022/01/12 04:12:46;;;;;;;11.30;8.10;;;;;;;-3.41;100.00;100024.34;5099862;28;20238;-80
2022/01/12 04:15:14;;;;;;;9.93;7.57;;;;;;;-3.45;100.00;100016.50;5101551;28;20649;-81
2022/01/12 04:17:41;;;;;;;10.40;8.47;;;;;;;-3.47;100.00;100023.34;5103726;28;20219;-81
2022/01/12 04:20:08;;;;;;;11.23;7.73;;;;;;;-3.49;100.00;100015.56;5099985;28;20215;-80
2022/01/12 04:25:18;;;;;;;12.00;7.77;;;;;;;-3.51;100.00;100012.09;5099008;28;20620;-80
2022/01/12 04:27:45;;;;;;;10.77;8.40;;;;;;;-3.54;100.00;100016.34;5101877;28;20210;-80
2022/01/12 04:30:12;;;;;;;9.80;7.30;;;;;;;-3.54;100.00;100009.47;5104247;28;20232;-81
2022/01/12 04:32:42;;;;;;;12.67;7.67;;;;;;;-3.54;100.00;100011.19;5101860;28;20224;-81
2022/01/12 04:35:09;;;;;;;11.50;8.20;;;;;;;-3.59;100.00;100018.88;5100292;28;20666;-81
2022/01/12 04:37:36;;;;;;;11.90;7.93;;;;;;;-3.51;100.00;100032.78;5102288;28;20230;-81
2022/01/12 04:40:06;;;;;;;12.00;8.87;;;;;;;-3.44;100.00;100049.25;5103872;28;20673;-81
2022/01/12 04:42:34;;;;;;;12.53;9.33;;;;;;;-3.46;100.00;100043.19;5101197;28;20302;-81
2022/01/12 04:45:14;;;;;;;11.47;8.53;;;;;;;-3.46;100.00;100027.69;5100184;28;20737;-81
2022/01/12 04:47:58;;;;;;;12.33;8.13;;;;;;;-3.46;100.00;100035.44;5095819;28;20223;-81
2022/01/12 04:50:27;;;;;;;10.37;7.57;;;;;;;-3.49;100.00;100043.16;5096873;28;20212;-81
2022/01/12 04:52:54;;;;;;;14.00;8.10;;;;;;;-3.53;100.00;100041.34;5095772;28;20214;-80
2022/01/12 04:55:20;;;;;;;11.80;7.67;;;;;;;-3.58;100.00;100045.56;5095531;28;20695;-80
2022/01/12 04:57:47;;;;;;;12.70;8.70;;;;;;;-3.54;100.00;100052.53;5080638;28;20265;-80
2022/01/12 05:00:16;;;;;;;12.33;8.57;;;;;;;-3.50;100.00;100059.47;5102578;28;20217;-80
2022/01/12 05:08:19;;;;;;;10.33;7.73;;;;;;;-3.51;100.00;100068.06;5104730;28;20265;-80
2022/01/12 05:13:31;;;;;;;10.90;8.03;;;;;;;-3.52;100.00;100062.06;5100075;28;20222;-80
2022/01/12 05:16:00;;;;;;;12.20;7.63;;;;;;;-3.54;100.00;100070.63;5100708;28;20294;-80
2022/01/12 05:18:28;;;;;;;10.87;7.73;;;;;;;-3.60;100.00;100079.13;5100003;28;20587;-80
2022/01/12 05:20:54;;;;;;;12.07;8.63;;;;;;;-3.64;100.00;100074.78;5099698;28;20224;-80
2022/01/12 05:23:21;;;;;;;12.70;7.97;;;;;;;-3.61;100.00;100079.13;5099671;28;20226;-80
2022/01/12 05:25:48;;;;;;;11.87;7.97;;;;;;;-3.64;100.00;100077.34;5102324;28;20566;-80
2022/01/12 05:28:16;;;;;;;11.50;8.60;;;;;;;-3.68;100.00;100074.69;5099306;28;20220;-80
2022/01/12 05:30:42;;;;;;;12.67;8.27;;;;;;;-3.71;100.00;100088.44;5099648;28;20303;-80
2022/01/12 05:33:09;;;;;;;12.97;8.83;;;;;;;-3.73;100.00;100090.09;5099559;28;20217;-80
2022/01/12 05:35:37;;;;;;;12.57;8.80;;;;;;;-3.72;100.00;100085.81;5101995;28;20211;-80
2022/01/12 05:38:08;;;;;;;13.13;7.80;;;;;;;-3.70;100.00;100086.69;5103924;28;20227;-80
2022/01/12 05:40:35;;;;;;;12.10;8.43;;;;;;;-3.65;100.00;100095.41;5105547;28;20214;-80
2022/01/12 05:43:02;;;;;;;11.70;8.53;;;;;;;-3.57;100.00;100104.16;5105894;28;20221;-80
2022/01/12 05:45:31;;;;;;;12.30;8.97;;;;;;;-3.50;100.00;100087.91;5104577;28;20224;-80
2022/01/12 05:50:46;;;;;;;11.63;7.50;;;;;;;-3.79;100.00;100087.41;5098932;28;20697;-80
2022/01/12 05:53:13;;;;;;;10.50;8.27;;;;;;;-3.81;100.00;100088.22;5100959;28;20222;-80
2022/01/12 05:55:40;;;;;;;11.07;7.63;;;;;;;-3.80;100.00;100095.16;5099570;28;20215;-80
2022/01/12 05:58:06;;;;;;;11.83;8.00;;;;;;;-3.82;100.00;100096.81;5098907;28;20587;-80
2022/01/12 06:00:33;;;;;;;12.93;8.27;;;;;;;-3.78;100.00;100103.78;5098590;28;20218;-80
2022/01/12 06:03:00;;;;;;;11.90;8.27;;;;;;;-3.77;100.00;100102.94;5100182;28;20557;-80
2022/01/12 06:05:28;;;;;;;13.40;8.47;;;;;;;-3.73;100.00;100113.34;5099533;28;20211;-80
2022/01/12 06:07:56;;;;;;;11.70;8.37;;;;;;;-3.63;100.00;100125.59;5095689;28;20240;-80
2022/01/12 06:10:23;;;;;;;11.30;7.77;;;;;;;-3.62;100.00;100121.31;5101293;28;20211;-80
2022/01/12 06:12:50;;;;;;;14.23;8.97;;;;;;;-3.67;100.00;100125.53;5101835;28;20215;-80
2022/01/12 06:15:16;;;;;;;11.80;8.57;;;;;;;-3.69;100.00;100124.59;5104861;28;20218;-80
2022/01/12 06:17:43;;;;;;;11.53;8.23;;;;;;;-3.72;100.00;100122.81;5105718;28;20215;-82
2022/01/12 06:20:12;;;;;;;11.10;8.53;;;;;;;-3.73;100.00;100118.50;5106767;28;20602;-81
2022/01/12 06:22:39;;;;;;;12.37;8.73;;;;;;;-3.71;100.00;100131.47;5102500;28;20241;-80
2022/01/12 06:25:13;;;;;;;13.93;8.87;;;;;;;-3.60;100.00;100132.53;5099589;28;20215;-80
2022/01/12 06:27:48;;;;;;;15.53;9.47;;;;;;;-3.58;100.00;100125.69;5098317;28;20258;-80
2022/01/12 06:31:10;;;;;;;13.87;8.97;;;;;;;-3.70;100.00;100122.88;5098138;28;20627;-80
2022/01/12 06:33:02;;;;;;;14.20;10.27;;;;;;;-3.68;100.00;100128.97;5105055;28;20650;-81
2022/01/12 06:35:29;;;;;;;14.40;10.00;;;;;;;-3.72;100.00;100119.41;5102852;28;20208;-81
2022/01/12 06:37:55;;;;;;;14.93;10.13;;;;;;;-3.76;100.00;100122.75;5101990;28;20219;-81
2022/01/12 06:40:23;;;;;;;13.43;9.70;;;;;;;-3.74;100.00;100131.41;5101945;28;20212;-81
2022/01/12 06:42:50;;;;;;;14.63;8.93;;;;;;;-3.82;100.00;100120.94;5101756;28;20212;-80
2022/01/12 06:45:17;;;;;;;12.13;8.70;;;;;;;-3.92;100.00;100110.41;5102694;28;20212;-79
2022/01/12 06:47:43;;;;;;;13.27;8.60;;;;;;;-3.93;100.00;100104.34;5106202;28;20234;-79
2022/01/12 06:50:10;;;;;;;12.93;9.33;;;;;;;-3.96;100.00;100113.75;5104886;28;20212;-79
2022/01/12 06:52:36;;;;;;;12.50;9.10;;;;;;;-3.94;100.00;100112.06;5102223;28;20207;-79
2022/01/12 06:55:03;;;;;;;13.87;9.27;;;;;;;-3.97;100.00;100114.63;5102190;28;20218;-79
2022/01/12 06:57:31;;;;;;;14.93;10.00;;;;;;;-3.92;100.00;100128.50;5105679;28;20705;-80
2022/01/12 06:59:58;;;;;;;15.20;9.40;;;;;;;-3.97;100.00;100128.38;5102807;28;20217;-79
2022/01/12 07:02:25;;;;;;;15.95;10.73;;;;;;;-3.99;100.00;100130.06;5102089;28;20459;-75
2022/01/12 07:04:51;;;;;;;13.87;9.80;;;;;;;-3.94;100.00;100120.69;5102203;28;20213;-75
2022/01/12 07:07:18;;;;;;;15.03;10.03;;;;;;;-3.90;100.00;100125.09;5109905;28;20234;-75
2022/01/12 07:09:44;;;;;;;14.37;9.63;;;;;;;-3.93;100.00;100129.31;5102337;28;20219;-75
2022/01/12 07:12:11;;;;;;;14.20;9.53;;;;;;;-4.02;100.00;100136.88;5098123;28;20251;-75
2022/01/12 07:14:39;;;;;;;16.40;10.40;;;;;;;-4.01;100.00;100139.50;5096072;28;20593;-75
2022/01/12 07:17:06;;;;;;;15.57;10.93;;;;;;;-4.05;100.00;100136.81;5095777;28;20704;-75
2022/01/12 07:19:32;;;;;;;16.60;10.50;;;;;;;-4.04;100.00;100136.00;5096338;28;20221;-75
2022/01/12 07:21:59;;;;;;;16.03;10.97;;;;;;;-4.01;100.00;100136.03;5098023;28;20703;-75
2022/01/12 07:24:25;;;;;;;17.97;11.50;;;;;;;-3.98;100.00;100136.97;5095886;28;20599;-75
2022/01/12 07:26:51;;;;;;;18.63;11.27;;;;;;;-3.90;100.00;100137.13;5093870;28;20246;-75
2022/01/12 07:29:18;;;;;;;18.90;11.67;;;;;;;-3.83;100.00;100144.16;5095725;28;20225;-75
2022/01/12 07:31:46;;;;;;;16.70;10.87;;;;;;;-3.74;100.00;100136.59;5098028;28;20236;-75
2022/01/12 07:34:14;;;;;;;17.83;11.23;;;;;;;-3.66;100.00;100145.34;5095445;28;20220;-75
2022/01/12 07:36:41;;;;;;;16.77;11.73;;;;;;;-3.59;100.00;100139.44;5097889;28;20423;-75
2022/01/12 07:39:07;;;;;;;18.73;11.87;;;;;;;-3.54;100.00;100150.75;5095630;28;20211;-75
2022/01/12 07:41:34;;;;;;;17.83;10.97;;;;;;;-3.37;100.00;100154.50;5098528;28;20218;-75
2022/01/12 07:44:00;;;;;;;18.77;11.60;;;;;;;-3.34;100.00;100175.22;5095715;28;20235;-74
2022/01/12 07:46:27;;;;;;;19.53;11.33;;;;;;;-3.19;100.00;100183.28;5094992;28;20213;-74
2022/01/12 07:48:55;;;;;;;19.43;11.87;;;;;;;-2.98;100.00;100194.84;5095108;28;20223;-75
2022/01/12 07:51:21;;;;;;;24.00;14.80;;;;;;;-2.71;100.00;100197.88;5098084;28;20275;-75
2022/01/12 07:53:48;;;;;;;23.00;13.40;;;;;;;-2.48;100.00;100205.97;5093610;28;20209;-75
2022/01/12 07:56:14;;;;;;;20.23;12.07;;;;;;;-2.39;100.00;100200.97;5095351;28;20228;-75
2022/01/12 07:58:41;;;;;;;19.37;13.20;;;;;;;-2.28;100.00;100217.53;5095083;28;20626;-75
2022/01/12 08:01:07;;;;;;;22.70;13.47;;;;;;;-2.22;100.00;100227.94;5097336;28;20220;-75
2022/01/12 08:03:34;;;;;;;22.80;13.97;;;;;;;-2.23;100.00;100223.63;5098909;28;20676;-74
2022/01/12 08:06:02;;;;;;;22.50;12.80;;;;;;;-2.28;100.00;100230.47;5097405;28;20236;-74
2022/01/12 08:08:28;;;;;;;19.43;13.10;;;;;;;-2.32;100.00;100231.28;5094791;28;20290;-75
2022/01/12 08:10:55;;;;;;;19.33;13.23;;;;;;;-2.31;100.00;100230.41;5097627;28;20210;-75
2022/01/12 08:13:21;;;;;;;21.97;13.87;;;;;;;-2.26;100.00;100223.59;5101876;28;20683;-75
2022/01/12 08:15:48;;;;;;;21.30;13.43;;;;;;;-2.10;100.00;100217.75;5101243;28;20212;-75
2022/01/12 08:18:14;;;;;;;21.57;13.60;;;;;;;-1.94;100.00;100220.59;5098500;28;20223;-75
2022/01/12 08:20:42;;;;;;;22.77;14.47;;;;;;;-1.78;100.00;100227.69;5096659;28;20223;-75
2022/01/12 08:23:10;;;;;;;21.27;13.70;;;;;;;-1.73;100.00;100227.78;5101324;28;20271;-75
2022/01/12 08:25:37;;;;;;;22.40;14.73;;;;;;;-1.78;100.00;100240.66;5101102;28;20697;-75
2022/01/12 08:28:04;;;;;;;18.13;12.20;;;;;;;-1.76;100.00;100248.47;5098217;28;20607;-75
2022/01/12 08:30:32;;;;;;;20.13;11.73;;;;;;;-1.75;100.00;100260.56;5098006;28;20241;-75
2022/01/12 08:32:58;;;;;;;19.70;12.57;;;;;;;-1.85;100.00;100256.13;5100473;28;20828;-75
2022/01/12 08:35:25;;;;;;;18.03;12.00;;;;;;;-1.98;100.00;100241.25;5101391;28;20216;-75
2022/01/12 08:37:52;;;;;;;16.20;11.80;;;;;;;-2.03;100.00;100232.56;5097941;28;20225;-75
2022/01/12 08:40:21;;;;;;;18.67;12.60;;;;;;;-2.05;100.00;100235.13;5098008;28;20299;-75
2022/01/12 08:42:48;;;;;;;23.53;14.27;;;;;;;-2.08;100.00;100239.41;5101073;28;20226;-75
2022/01/12 08:45:16;;;;;;;20.67;12.63;;;;;;;-2.15;100.00;100241.00;5101402;28;20572;-75
2022/01/12 08:47:43;;;;;;;19.83;12.90;;;;;;;-2.18;100.00;100248.75;5096853;28;20245;-75
2022/01/12 08:50:10;;;;;;;19.33;13.30;;;;;;;-2.15;100.00;100253.13;5100242;28;20220;-75
2022/01/12 08:52:37;;;;;;;19.23;13.10;;;;;;;-2.12;100.00;100258.31;5095462;28;20233;-75
2022/01/12 08:55:05;;;;;;;20.73;13.43;;;;;;;-2.10;100.00;100251.44;5094519;28;20213;-75
2022/01/12 08:57:33;;;;;;;19.10;13.40;;;;;;;-2.04;100.00;100243.75;5094385;28;20217;-75
2022/01/12 09:00:00;;;;;;;21.23;14.13;;;;;;;-1.96;100.00;100244.75;5095912;28;20582;-75
2022/01/12 09:02:27;;;;;;;24.40;15.40;;;;;;;-1.95;100.00;100242.19;5095220;28;20223;-75
2022/01/12 09:04:54;;;;;;;25.07;15.43;;;;;;;-1.93;100.00;100244.78;5094265;28;20217;-75
2022/01/12 09:07:20;;;;;;;44.67;26.23;;;;;;;-1.91;100.00;100246.53;5094172;28;20241;-75
2022/01/12 09:09:46;;;;;;;47.07;30.13;;;;;;;-1.89;100.00;100247.41;5095667;28;20221;-75
2022/01/12 09:12:13;;;;;;;41.23;25.97;;;;;;;-1.81;100.00;100252.72;5096672;28;20226;-75
2022/01/12 09:14:41;;;;;;;36.00;22.00;;;;;;;-1.82;100.00;100251.88;5098830;28;20602;-75
2022/01/12 09:17:15;;;;;;;25.03;16.57;;;;;;;-1.77;100.00;100267.47;5093876;28;20270;-75
2022/01/12 09:19:42;;;;;;;23.20;15.47;;;;;;;-1.70;100.00;100279.66;5096358;28;20643;-76
2022/01/12 09:22:08;;;;;;;22.73;14.83;;;;;;;-1.62;100.00;100283.22;5094615;28;20213;-75
2022/01/12 09:24:35;;;;;;;41.83;24.80;;;;;;;-1.50;100.00;100283.38;5094112;28;20224;-75
2022/01/12 09:27:01;;;;;;;43.00;26.27;;;;;;;-1.40;100.00;100285.22;5093755;28;20747;-76
2022/01/12 09:29:28;;;;;;;39.90;26.37;;;;;;;-1.24;100.00;100287.16;5095173;28;20225;-75
2022/01/12 09:31:56;;;;;;;23.13;16.30;;;;;;;-0.94;100.00;100271.91;5095093;28;20242;-75
2022/01/12 09:34:23;;;;;;;23.33;15.80;;;;;;;-0.72;100.00;100247.91;5097545;28;20668;-74
2022/01/12 09:36:49;;;;;;;23.43;16.10;;;;;;;-0.74;100.00;100247.88;5097900;28;20226;-76
2022/01/12 09:39:16;;;;;;;23.63;15.47;;;;;;;-0.70;100.00;100256.56;5093045;28;20212;-75
2022/01/12 09:41:42;;;;;;;23.17;15.07;;;;;;;-0.67;100.00;100270.47;5099480;28;20206;-75
2022/01/12 09:44:08;;;;;;;19.90;14.17;;;;;;;-0.69;100.00;100268.72;5103382;28;20269;-75
2022/01/12 09:46:35;;;;;;;20.90;14.63;;;;;;;-0.73;100.00;100287.69;5101508;28;20214;-75
2022/01/12 09:49:06;;;;;;;20.70;14.07;;;;;;;-0.75;100.00;100297.22;5100717;28;20237;-75
2022/01/12 09:51:33;;;;;;;21.83;14.17;;;;;;;-0.75;100.00;100305.84;5102080;28;20218;-75
2022/01/12 09:53:59;;;;;;;20.30;14.30;;;;;;;-0.74;100.00;100307.59;5101541;28;20217;-74
2022/01/12 09:56:30;;;;;;;18.03;12.87;;;;;;;-0.73;100.00;100303.28;5096935;28;20741;-75
2022/01/12 09:58:59;;;;;;;19.17;14.10;;;;;;;-0.74;100.00;100312.78;5098367;28;20211;-75
2022/01/12 10:01:28;;;;;;;18.70;13.63;;;;;;;-0.69;100.00;100305.06;5098170;28;20559;-74
2022/01/12 10:04:10;;;;;;;18.60;14.07;;;;;;;-0.67;100.00;100308.53;5097697;28;20218;-75
2022/01/12 10:06:38;;;;;;;22.00;14.70;;;;;;;-0.59;100.00;100307.75;5101890;28;20281;-75
2022/01/12 10:09:05;;;;;;;24.27;15.67;;;;;;;-0.53;100.00;100317.31;5101762;28;20238;-75
2022/01/12 10:11:32;;;;;;;21.43;14.77;;;;;;;-0.53;100.00;100306.94;5100179;28;20229;-75
2022/01/12 10:13:59;;;;;;;19.83;14.50;;;;;;;-0.45;100.00;100300.94;5096837;28;20214;-75
2022/01/12 10:16:27;;;;;;;20.60;13.77;;;;;;;-0.42;100.00;100297.50;5097128;28;20260;-75
2022/01/12 10:18:55;;;;;;;22.70;15.43;;;;;;;-0.33;100.00;100300.19;5100544;28;20299;-75
2022/01/12 10:21:32;;;;;;;21.33;13.97;;;;;;;-0.34;100.00;100303.63;5096661;28;20218;-75
2022/01/12 10:24:00;;;;;;;20.23;14.47;;;;;;;-0.31;100.00;100298.47;5097051;28;20218;-75
2022/01/12 10:26:33;;;;;;;20.33;13.83;;;;;;;-0.25;100.00;100308.91;5097509;28;20214;-75
2022/01/12 10:29:05;;;;;;;19.97;13.40;;;;;;;-0.26;100.00;100313.22;5097679;28;20287;-74
2022/01/12 10:31:43;;;;;;;18.87;13.33;;;;;;;-0.33;100.00;100315.78;5096403;28;20242;-75
2022/01/12 10:34:09;;;;;;;17.93;12.33;;;;;;;-0.38;100.00;100323.50;5095858;28;20313;-75
2022/01/12 10:36:41;;;;;;;18.97;13.33;;;;;;;-0.41;100.00;100330.41;5099028;28;20678;-75
2022/01/12 10:39:09;;;;;;;18.43;12.87;;;;;;;-0.35;100.00;100322.69;5096302;28;20210;-75
2022/01/12 10:41:36;;;;;;;16.60;12.17;;;;;;;-0.29;100.00;100327.91;5096556;28;20234;-75
2022/01/12 10:44:03;;;;;;;18.13;12.53;;;;;;;-0.29;100.00;100322.72;5096259;28;20215;-75
2022/01/12 10:46:31;;;;;;;18.13;12.77;;;;;;;-0.24;100.00;100331.44;5101278;28;20260;-75
2022/01/12 10:48:58;;;;;;;17.80;13.20;;;;;;;-0.18;100.00;100323.69;5103581;28;20244;-75
2022/01/12 10:51:27;;;;;;;16.53;12.10;;;;;;;-0.22;100.00;100321.06;5100526;28;20223;-75
2022/01/12 10:53:59;;;;;;;15.37;12.03;;;;;;;-0.14;100.00;100322.88;5100340;28;20218;-75
2022/01/12 10:56:26;;;;;;;17.40;11.90;;;;;;;-0.02;100.00;100329.91;5102095;28;20210;-75
2022/01/12 10:58:55;;;;;;;18.17;13.03;;;;;;;0.00;100.00;100333.38;5102417;28;20217;-75
2022/01/12 11:01:23;;;;;;;16.53;12.40;;;;;;;0.09;100.00;100323.06;5096286;28;20217;-75
2022/01/12 11:03:50;;;;;;;16.13;11.43;;;;;;;0.11;100.00;100313.53;5096981;28;20209;-76
2022/01/12 11:06:17;;;;;;;15.50;11.57;;;;;;;0.12;100.00;100312.66;5097708;28;20214;-76
2022/01/12 11:08:48;;;;;;;17.40;12.47;;;;;;;0.24;100.00;100307.53;5095743;28;20235;-76
2022/01/12 11:11:17;;;;;;;18.37;12.53;;;;;;;0.36;100.00;100304.13;5098752;28;20619;-76
2022/01/12 11:13:45;;;;;;;16.73;12.23;;;;;;;0.36;100.00;100309.31;5102817;28;20220;-76
2022/01/12 11:16:11;;;;;;;15.77;10.77;;;;;;;0.37;100.00;100305.88;5100585;28;20260;-75
2022/01/12 11:18:40;;;;;;;15.27;10.33;;;;;;;0.35;100.00;100303.28;5100299;28;20585;-76
2022/01/12 11:21:13;;;;;;;14.90;10.90;;;;;;;0.38;100.00;100300.69;5109352;28;20689;-76
2022/01/12 11:23:42;;;;;;;15.07;11.10;;;;;;;0.45;100.00;100305.03;5101647;28;20210;-76
2022/01/12 11:26:14;;;;;;;13.10;10.07;;;;;;;0.52;100.00;100296.44;5098571;28;20461;-75
2022/01/12 11:28:42;;;;;;;16.30;11.13;;;;;;;0.56;100.00;100300.78;5102478;28;20670;-74
2022/01/12 11:31:09;;;;;;;15.43;11.33;;;;;;;0.58;100.00;100299.06;5103424;28;20271;-74
2022/01/12 11:33:42;;;;;;;14.40;11.10;;;;;;;0.68;100.00;100299.97;5100316;28;20265;-74
2022/01/12 11:36:20;;;;;;;16.40;11.10;;;;;;;0.86;100.00;100298.28;5100060;28;20235;-74
2022/01/12 11:38:51;;;;;;;16.50;11.17;;;;;;;0.83;100.00;100281.81;5095084;28;20290;-74
2022/01/12 11:41:22;;;;;;;15.43;10.90;;;;;;;0.75;100.00;100255.75;5096744;28;20210;-74
2022/01/12 11:43:52;;;;;;;16.03;11.43;;;;;;;0.75;100.00;100257.50;5095394;28;20207;-74
2022/01/12 11:46:20;;;;;;;14.27;10.27;;;;;;;0.81;100.00;100247.94;5095028;28;20222;-74
2022/01/12 11:48:49;;;;;;;14.67;10.90;;;;;;;0.75;100.00;100247.09;5095169;28;20234;-75
2022/01/12 11:51:18;;;;;;;15.40;11.53;;;;;;;0.80;100.00;100241.00;5097074;28;20210;-75
2022/01/12 11:53:46;;;;;;;15.10;11.30;;;;;;;0.74;100.00;100237.53;5094430;28;20746;-75
2022/01/12 11:56:15;;;;;;;14.47;10.90;;;;;;;0.69;100.00;100240.09;5094748;28;20695;-75
2022/01/12 11:58:54;;;;;;;14.77;10.40;;;;;;;0.78;99.12;100234.94;5095229;28;20233;-75
2022/01/12 12:01:22;;;;;;;13.80;10.63;;;;;;;0.78;97.43;100232.34;5100896;28;20214;-75
2022/01/12 12:04:02;;;;;;;15.37;10.47;;;;;;;0.69;96.85;100234.91;5102315;28;20690;-74
2022/01/12 12:06:29;;;;;;;12.43;9.57;;;;;;;0.69;98.06;100234.91;5097667;28;20219;-75
2022/01/12 12:09:01;;;;;;;14.23;10.50;;;;;;;0.77;97.75;100229.72;5098433;28;20248;-74
2022/01/12 12:11:32;;;;;;;14.20;10.37;;;;;;;0.78;97.49;100229.75;5098492;28;20210;-74
2022/01/12 12:14:05;;;;;;;15.50;10.43;;;;;;;0.73;97.60;100221.03;5099505;28;20218;-75
2022/01/12 12:16:33;;;;;;;13.90;9.63;;;;;;;0.88;96.54;100226.31;5098348;28;20215;-75
2022/01/12 12:19:02;;;;;;;12.87;9.80;;;;;;;0.87;95.41;100227.13;5098599;28;20211;-74
2022/01/12 12:21:28;;;;;;;13.47;9.47;;;;;;;0.80;94.81;100219.34;5101769;28;20650;-74
2022/01/12 12:23:55;;;;;;;14.07;10.33;;;;;;;0.75;95.97;100224.50;5098397;28;20318;-74